Time;durP1;ratioP1;P1;durP2;ratioP2;P2;SDS_P1;SDS_P2;PMS_P1;PMS_P2;Temp;Humidity;BMP_temperature;BMP_pressure;BME280_temperature;BME280_humidity;BME280_pressure;Samples;Min_cycle;Max_cycle;Signal;HPM_P1;HPM_P2
2022/06/20 00:01:08;;;;;;;9.63;2.20;;;12.50;99.90;;;;;;6222189;22;20043;-89
2022/06/20 00:03:56;;;;;;;12.98;2.58;;;13.60;99.90;;;;;;6245986;22;20030;-89
2022/06/20 00:06:23;;;;;;;10.73;2.38;;;13.60;99.90;;;;;;6250484;22;20089;-89
2022/06/20 00:08:55;;;;;;;9.73;2.10;;;12.50;99.90;;;;;;6248485;22;20058;-90
2022/06/20 00:15:11;;;;;;;10.13;2.17;;;13.60;99.90;;;;;;6275816;22;20101;-90
2022/06/20 00:17:50;;;;;;;9.05;2.35;;;12.70;99.90;;;;;;6249199;22;20024;-90
2022/06/20 00:20:37;;;;;;;9.77;2.30;;;13.70;99.90;;;;;;6249763;22;20019;-90
2022/06/20 00:23:19;;;;;;;9.95;2.20;;;12.50;99.90;;;;;;6275816;22;20019;-89
2022/06/20 00:32:23;;;;;;;9.30;2.15;;;12.40;99.90;;;;;;6249326;22;20023;-89
2022/06/20 00:35:02;;;;;;;11.88;2.80;;;12.40;99.90;;;;;;6276525;22;20031;-90
2022/06/20 00:37:32;;;;;;;10.38;2.20;;;13.40;99.90;;;;;;6275156;22;20046;-89
2022/06/20 00:39:58;;;;;;;10.82;2.30;;;12.30;99.90;;;;;;6249214;22;20374;-89
2022/06/20 00:42:24;;;;;;;10.45;2.47;;;12.30;99.90;;;;;;6249691;22;20007;-89
2022/06/20 00:45:03;;;;;;;8.13;2.03;;;12.20;99.90;;;;;;6275348;22;20016;-89
2022/06/20 00:47:32;;;;;;;9.20;2.10;;;12.20;99.90;;;;;;6276528;22;20008;-89
2022/06/20 00:50:11;;;;;;;10.48;2.35;;;12.20;99.90;;;;;;6248151;22;20019;-89
2022/06/20 00:53:07;;;;;;;11.98;2.10;;;12.20;99.90;;;;;;6250543;22;20467;-89
2022/06/20 00:56:11;;;;;;;9.95;2.33;;;12.40;99.90;;;;;;6255993;22;20371;-89
2022/06/20 00:58:51;;;;;;;12.20;2.78;;;12.30;99.90;;;;;;6252405;22;20016;-89
2022/06/20 01:01:25;;;;;;;10.65;2.40;;;12.30;99.90;;;;;;6277754;22;20015;-89
2022/06/20 01:03:55;;;;;;;13.15;2.88;;;12.30;99.90;;;;;;6259466;22;20022;-89
2022/06/20 01:06:33;;;;;;;8.95;2.40;;;12.30;99.90;;;;;;6303815;22;20055;-88
2022/06/20 01:09:06;;;;;;;10.15;2.47;;;12.30;99.90;;;;;;6249800;22;20015;-89
2022/06/20 01:11:46;;;;;;;9.57;2.37;;;12.30;99.90;;;;;;6278315;22;20020;-89
2022/06/20 01:14:34;;;;;;;8.73;2.05;;;12.30;99.90;;;;;;6261514;22;20023;-88
2022/06/20 01:17:06;;;;;;;12.82;2.72;;;12.30;99.90;;;;;;6264756;22;20039;-89
2022/06/20 01:19:31;;;;;;;8.20;2.45;;;12.30;99.90;;;;;;6279051;22;20020;-89
2022/06/20 01:22:03;;;;;;;9.43;2.40;;;12.80;99.90;;;;;;6276049;22;20137;-89
2022/06/20 01:24:40;;;;;;;11.60;2.40;;;12.30;99.90;;;;;;6276912;22;20043;-88
2022/06/20 01:27:15;;;;;;;12.07;2.65;;;12.30;99.90;;;;;;6277124;22;20047;-88
2022/06/20 01:29:48;;;;;;;9.18;2.40;;;12.30;99.90;;;;;;6279099;22;20016;-89
2022/06/20 01:32:13;;;;;;;9.00;2.28;;;12.30;99.90;;;;;;6251802;22;20094;-88
2022/06/20 01:34:40;;;;;;;12.32;2.58;;;12.30;99.90;;;;;;6249039;22;20349;-88
2022/06/20 01:37:25;;;;;;;9.88;2.58;;;12.30;99.90;;;;;;6277568;22;20039;-89
2022/06/20 01:40:05;;;;;;;8.77;2.50;;;12.70;99.90;;;;;;6274787;22;20084;-88
2022/06/20 01:42:32;;;;;;;13.82;2.50;;;12.30;99.90;;;;;;6249052;22;20332;-89
2022/06/20 01:48:06;;;;;;;10.00;2.50;;;12.30;99.90;;;;;;6247566;22;20431;-89
2022/06/20 01:50:33;;;;;;;8.93;2.30;;;12.40;99.90;;;;;;6248656;22;20019;-88
2022/06/20 01:53:01;;;;;;;8.55;2.38;;;12.30;99.90;;;;;;6274355;22;20022;-89
2022/06/20 01:55:28;;;;;;;10.27;2.42;;;12.40;99.90;;;;;;6277055;22;20019;-89
2022/06/20 01:58:07;;;;;;;12.35;3.33;;;12.40;99.90;;;;;;6247730;22;20027;-89
2022/06/20 02:00:34;;;;;;;12.10;2.47;;;12.50;99.90;;;;;;6247760;22;20391;-89
2022/06/20 02:11:20;;;;;;;10.80;2.70;;;12.50;99.90;;;;;;6274824;22;20029;-89
2022/06/20 02:14:46;;;;;;;9.93;2.47;;;12.40;99.90;;;;;;6244441;22;20111;-90
2022/06/20 02:17:41;;;;;;;8.30;2.50;;;12.20;99.90;;;;;;6249966;22;20094;-90
2022/06/20 02:30:35;;;;;;;10.45;2.50;;;12.10;99.90;;;;;;6124180;23;20029;-90
2022/06/20 02:50:34;;;;;;;10.88;3.38;;;13.00;99.90;;;;;;6133347;22;20371;-87
2022/06/20 02:54:08;;;;;;;9.75;2.80;;;12.20;99.90;;;;;;6219819;23;20025;-89
2022/06/20 03:12:18;;;;;;;9.20;2.92;;;12.10;99.90;;;;;;6248604;22;20074;-89
2022/06/20 03:15:13;;;;;;;11.57;3.10;;;12.10;99.90;;;;;;6249828;22;20027;-90
2022/06/20 03:20:46;;;;;;;11.10;2.88;;;12.40;99.90;;;;;;6277133;22;20027;-89
2022/06/20 03:23:40;;;;;;;8.93;3.03;;;11.80;99.90;;;;;;6249833;22;20517;-89
2022/06/20 03:26:28;;;;;;;10.18;2.88;;;11.70;99.90;;;;;;6249111;22;20340;-90
2022/06/20 03:29:12;;;;;;;13.65;3.30;;;11.70;99.90;;;;;;6276862;22;20083;-89
2022/06/20 03:31:38;;;;;;;9.32;3.38;;;11.40;99.90;;;;;;6276567;22;20118;-90
2022/06/20 03:34:54;;;;;;;10.48;3.10;;;12.80;99.90;;;;;;6246733;22;20091;-90
2022/06/20 03:49:05;;;;;;;10.05;3.63;;;11.60;99.90;;;;;;6092861;23;20041;-89
2022/06/20 03:52:13;;;;;;;11.98;3.38;;;11.50;99.90;;;;;;6194750;23;20033;-89
2022/06/20 03:55:53;;;;;;;10.77;3.50;;;11.50;99.90;;;;;;6048462;23;20335;-90
2022/06/20 04:02:51;;;;;;;12.95;3.58;;;11.50;99.90;;;;;;6126641;23;20022;-89
2022/06/20 04:12:32;;;;;;;11.35;3.42;;;12.30;99.90;;;;;;6241925;22;20004;-89
2022/06/20 04:15:19;;;;;;;9.82;3.45;;;11.50;99.90;;;;;;6231211;23;20020;-89
2022/06/20 04:21:25;;;;;;;11.13;3.10;;;11.80;99.90;;;;;;6234166;22;20024;-90
2022/06/20 04:24:32;;;;;;;11.45;3.50;;;11.50;99.90;;;;;;6250066;22;20012;-90
2022/06/20 04:27:48;;;;;;;12.75;3.25;;;11.20;99.90;;;;;;6276039;22;20065;-90
2022/06/20 04:34:22;;;;;;;10.07;3.55;;;11.70;99.90;;;;;;6123444;23;20069;-90
2022/06/20 04:37:44;;;;;;;12.73;3.53;;;11.80;99.90;;;;;;6159018;22;20015;-90
2022/06/20 04:41:12;;;;;;;13.55;3.30;;;11.80;99.90;;;;;;6253446;22;20031;-90
2022/06/20 04:50:22;;;;;;;;;;;12.00;99.90;;;;;;6098773;23;20359;-89
2022/06/20 04:56:39;;;;;;;11.07;2.88;;;13.40;99.90;;;;;;6097748;23;20018;-90
2022/06/20 04:59:26;;;;;;;10.95;2.70;;;12.30;99.90;;;;;;6098211;23;20022;-90
2022/06/20 05:02:25;;;;;;;12.23;3.20;;;12.30;99.90;;;;;;6098843;23;20018;-90
2022/06/20 05:05:04;;;;;;;10.82;3.15;;;13.00;99.90;;;;;;6075735;23;20542;-90
2022/06/20 05:09:03;;;;;;;8.93;3.00;;;12.60;99.90;;;;;;6123462;23;20021;-89
2022/06/20 05:12:18;;;;;;;12.93;3.08;;;12.50;99.90;;;;;;6122755;23;20309;-89
2022/06/20 05:15:33;;;;;;;9.50;3.53;;;12.40;99.90;;;;;;6123347;23;20066;-90
2022/06/20 05:18:39;;;;;;;12.25;3.05;;;11.90;99.90;;;;;;6122547;23;20018;-90
2022/06/20 05:21:53;;;;;;;10.23;3.17;;;12.50;99.90;;;;;;6090098;23;20022;-91
2022/06/20 05:28:23;;;;;;;10.07;2.88;;;12.60;99.90;;;;;;6117193;23;20032;-90
2022/06/20 05:31:57;;;;;;;10.98;3.28;;;12.70;99.90;;;;;;6160317;22;20086;-89
2022/06/20 05:35:25;;;;;;;10.80;3.10;;;12.80;99.90;;;;;;6275581;22;20016;-90
2022/06/20 05:38:38;;;;;;;7.97;2.92;;;12.80;99.90;;;;;;6249303;22;20049;-90
2022/06/20 05:41:51;;;;;;;11.07;3.05;;;13.00;99.90;;;;;;6276069;22;20015;-90
2022/06/20 05:44:30;;;;;;;11.35;3.25;;;13.00;99.90;;;;;;6275960;22;20012;-90
2022/06/20 05:47:23;;;;;;;10.40;2.97;;;13.10;99.90;;;;;;6274346;22;20008;-90
2022/06/20 05:50:28;;;;;;;8.82;3.13;;;13.20;99.90;;;;;;6246938;22;20019;-90
2022/06/20 05:53:23;;;;;;;11.65;3.20;;;13.30;99.90;;;;;;6249465;22;20042;-90
2022/06/20 05:56:44;;;;;;;7.47;2.67;;;14.00;99.90;;;;;;6147493;22;20027;-90
2022/06/20 06:00:04;;;;;;;12.87;3.00;;;13.10;99.90;;;;;;6278171;22;20035;-90
2022/06/20 06:06:50;;;;;;;9.77;3.00;;;13.50;99.90;;;;;;6251603;22;20028;-90
2022/06/20 06:13:33;;;;;;;10.77;3.10;;;13.70;99.90;;;;;;6277639;22;20109;-91
2022/06/20 06:20:37;;;;;;;11.50;2.92;;;13.80;99.90;;;;;;6276679;22;20186;-90
2022/06/20 06:23:14;;;;;;;12.40;3.20;;;13.90;99.90;;;;;;6174106;22;20474;-90
2022/06/20 06:25:52;;;;;;;14.70;3.30;;;14.80;99.90;;;;;;6250611;22;20027;-89
2022/06/20 06:28:36;;;;;;;12.30;3.30;;;14.80;99.90;;;;;;6277157;22;20317;-90
2022/06/20 06:31:29;;;;;;;8.45;2.65;;;15.10;99.90;;;;;;6277931;22;20016;-95
2022/06/20 06:38:23;;;;;;;14.90;3.10;;;14.20;99.90;;;;;;6076373;23;20028;-93
2022/06/20 08:11:45;;;;;;;9.93;2.92;;;17.20;99.90;;;;;;6147694;22;20046;-96
2022/06/20 08:15:21;;;;;;;9.68;3.22;;;17.60;99.90;;;;;;6134406;23;20022;-96
2022/06/20 11:07:23;;;;;;;;;;;20.20;98.80;;;;;;6285598;22;20022;-96
2022/06/20 18:41:14;;;;;;;9.02;2.10;;;20.60;96.40;;;;;;6269933;22;20436;-88
2022/06/20 18:49:03;;;;;;;7.85;2.10;;;20.50;97.00;;;;;;6275432;22;20152;-90
2022/06/20 18:56:36;;;;;;;7.90;2.22;;;20.10;97.20;;;;;;6145006;23;20105;-90
2022/06/20 19:00:08;;;;;;;6.85;1.80;;;20.00;97.10;;;;;;6011383;23;20019;-92
2022/06/20 19:11:25;;;;;;;9.80;3.20;;;17.50;99.50;;;;;;5857979;24;20419;-91
2022/06/20 19:18:45;;;;;;;8.95;2.13;;;16.30;99.90;;;;;;5847935;24;20102;-92
2022/06/20 19:25:23;;;;;;;9.68;2.22;;;15.90;99.90;;;;;;5956226;24;20041;-91
2022/06/20 19:32:08;;;;;;;9.93;2.20;;;15.60;99.90;;;;;;6022659;23;20103;-96
2022/06/20 20:02:28;;;;;;;9.50;2.20;;;14.60;99.90;;;;;;6249291;23;20015;-94
2022/06/20 20:09:13;;;;;;;7.90;2.03;;;14.50;99.90;;;;;;6223933;23;20441;-95
2022/06/20 20:16:15;;;;;;;8.38;1.98;;;14.50;99.90;;;;;;6254444;23;20467;-96
2022/06/20 20:26:20;;;;;;;10.25;2.50;;;14.30;99.90;;;;;;6247945;23;20015;-94
2022/06/20 20:36:48;;;;;;;7.25;2.17;;;14.00;99.90;;;;;;6245268;23;20042;-90
2022/06/20 20:39:54;;;;;;;6.60;2.20;;;13.90;99.90;;;;;;6218233;23;20147;-90
2022/06/20 20:57:51;;;;;;;8.43;2.20;;;13.50;99.90;;;;;;6186485;23;20016;-89
2022/06/20 21:04:15;;;;;;;9.82;2.40;;;13.30;99.90;;;;;;6241937;22;20026;-88
2022/06/20 21:09:58;;;;;;;9.63;2.22;;;13.60;99.90;;;;;;6249137;22;20020;-88
2022/06/20 21:12:45;;;;;;;11.70;2.35;;;12.80;99.90;;;;;;6223930;22;20575;-89
2022/06/20 21:19:24;;;;;;;9.15;2.10;;;12.80;99.90;;;;;;6276845;22;20069;-91
2022/06/20 21:29:29;;;;;;;10.00;2.40;;;13.00;99.90;;;;;;6205826;22;20090;-89
2022/06/20 21:32:34;;;;;;;9.70;2.33;;;12.80;99.90;;;;;;6248285;22;20355;-88
2022/06/20 21:45:50;;;;;;;12.63;2.35;;;12.70;99.90;;;;;;6099641;23;20466;-93
2022/06/20 21:48:42;;;;;;;9.57;2.55;;;12.60;99.90;;;;;;6123037;23;20018;-87
2022/06/20 21:51:40;;;;;;;8.13;2.50;;;12.60;99.90;;;;;;6249330;22;20019;-87
2022/06/20 21:54:44;;;;;;;8.25;2.50;;;12.20;99.90;;;;;;6250209;22;20046;-88
2022/06/20 21:57:42;;;;;;;9.60;2.80;;;12.40;99.90;;;;;;6276744;22;20019;-87
2022/06/20 22:00:23;;;;;;;10.85;2.75;;;12.10;99.90;;;;;;6255448;22;20016;-87
2022/06/20 22:06:27;;;;;;;7.97;2.25;;;13.20;99.90;;;;;;6210335;23;20007;-87
2022/06/20 22:12:32;;;;;;;9.80;2.45;;;12.20;99.90;;;;;;6160809;23;20576;-88
2022/06/20 22:18:44;;;;;;;9.60;2.22;;;12.20;99.90;;;;;;6243968;23;20024;-87
2022/06/20 22:22:12;;;;;;;9.77;2.35;;;12.20;99.90;;;;;;6245362;23;20333;-87
2022/06/20 22:25:06;;;;;;;10.27;2.65;;;12.10;99.90;;;;;;6121937;23;20059;-88
2022/06/20 22:28:26;;;;;;;11.85;2.67;;;12.00;99.90;;;;;;6130575;23;20068;-87
2022/06/20 22:31:32;;;;;;;10.13;2.58;;;11.80;99.90;;;;;;6244407;23;20023;-87
2022/06/20 22:34:30;;;;;;;11.68;2.65;;;12.00;99.90;;;;;;6219315;23;20016;-87
2022/06/20 22:37:12;;;;;;;10.05;2.75;;;13.20;99.90;;;;;;6219527;23;20020;-87
2022/06/20 22:40:45;;;;;;;;;;;;;;;;;;;;;
2022/06/20 22:43:21;;;;;;;10.95;2.60;;;11.80;99.90;;;;;;6247492;23;20433;-87
2022/06/20 22:46:04;;;;;;;9.82;2.70;;;12.50;99.90;;;;;;6245602;23;20091;-87
2022/06/20 22:48:54;;;;;;;9.15;2.90;;;11.80;99.90;;;;;;6247320;23;20436;-87
2022/06/20 22:51:26;;;;;;;10.63;2.55;;;11.70;99.90;;;;;;6246848;23;20099;-86
2022/06/20 22:54:28;;;;;;;11.75;2.80;;;12.20;99.90;;;;;;6218549;23;20016;-86
2022/06/20 22:57:53;;;;;;;9.02;2.90;;;12.90;99.90;;;;;;6219393;23;20030;-87
2022/06/20 23:00:39;;;;;;;8.77;2.58;;;11.40;99.90;;;;;;6245230;23;20027;-87
2022/06/20 23:03:25;;;;;;;9.73;2.75;;;11.50;99.90;;;;;;6246845;23;20107;-87
2022/06/20 23:06:00;;;;;;;11.20;3.03;;;11.30;99.90;;;;;;6219586;23;20096;-87
2022/06/20 23:08:26;;;;;;;10.75;2.60;;;11.40;99.90;;;;;;6219345;23;20368;-87
2022/06/20 23:10:52;;;;;;;10.73;2.50;;;11.40;99.90;;;;;;6246272;23;20091;-87
2022/06/20 23:13:33;;;;;;;10.35;2.67;;;11.40;99.90;;;;;;6245379;23;20012;-87
2022/06/20 23:15:59;;;;;;;10.50;2.53;;;11.40;99.90;;;;;;6246097;23;20020;-87
2022/06/20 23:21:13;;;;;;;9.63;3.30;;;11.30;99.90;;;;;;6245997;23;20024;-87
2022/06/20 23:23:43;;;;;;;11.50;2.70;;;11.20;99.90;;;;;;6228127;22;20030;-87
2022/06/20 23:26:53;;;;;;;10.63;3.10;;;12.30;99.90;;;;;;6276891;22;20015;-87
2022/06/20 23:29:38;;;;;;;13.57;3.05;;;10.80;99.90;;;;;;6179900;22;20077;-87
2022/06/20 23:32:07;;;;;;;14.20;3.70;;;12.00;99.90;;;;;;6277059;22;20048;-87
2022/06/20 23:35:01;;;;;;;10.77;2.60;;;11.10;99.90;;;;;;6276806;22;20022;-86
2022/06/20 23:37:30;;;;;;;;;;;12.00;99.90;;;;;;6249542;22;20386;-86
2022/06/20 23:40:23;;;;;;;9.57;2.67;;;11.10;99.90;;;;;;6248754;22;19919;-86
2022/06/20 23:43:42;;;;;;;12.07;2.70;;;11.10;99.90;;;;;;6275599;22;20015;-87
2022/06/20 23:46:31;;;;;;;9.93;2.60;;;11.00;99.90;;;;;;6147057;22;20019;-87
2022/06/20 23:49:24;;;;;;;12.52;3.05;;;11.30;99.90;;;;;;6242602;22;20016;-86
2022/06/20 23:51:55;;;;;;;11.18;2.90;;;10.90;99.90;;;;;;6276154;22;20026;-87
2022/06/20 23:54:35;;;;;;;11.48;2.85;;;11.90;99.90;;;;;;6249694;22;20114;-86
2022/06/20 23:57:04;;;;;;;12.10;2.90;;;11.40;99.90;;;;;;6274523;22;20023;-87
2022/06/20 23:59:38;;;;;;;10.80;3.03;;;11.00;99.90;;;;;;6249456;22;20045;-88
